Time;durP1;ratioP1;P1;durP2;ratioP2;P2;SDS_P1;SDS_P2;PMS_P1;PMS_P2;Temp;Humidity;BMP_temperature;BMP_pressure;BME280_temperature;BME280_humidity;BME280_pressure;Samples;Min_cycle;Max_cycle;Signal;HPM_P1;HPM_P2
2022/11/21 00:02:23;;;;;;;;;;;;;;;6.79;69.67;94607.13;5048282;28;20118;-68
2022/11/21 00:04:49;;;;;;;;;;;;;;;6.31;71.73;94601.41;5030105;28;20060;-67
2022/11/21 00:07:14;;;;;;;;;;;;;;;6.27;71.28;94610.97;5048639;28;20478;-67
2022/11/21 00:09:39;;;;;;;;;;;;;;;6.70;69.72;94612.31;5049681;28;20017;-68
2022/11/21 00:12:04;;;;;;;;;;;;;;;6.25;70.77;94614.69;5047876;28;20490;-67
2022/11/21 00:14:29;;;;;;;;;;;;;;;6.14;70.84;94620.38;5048904;28;20013;-67
2022/11/21 00:16:55;;;;;;;;;;;;;;;5.87;71.42;94616.53;5030332;28;20433;-68
2022/11/21 00:19:20;;;;;;;;;;;;;;;5.99;71.45;94624.06;5048631;28;20013;-68
2022/11/21 00:21:45;;;;;;;;;;;;;;;5.81;72.25;94625.59;5048892;28;20014;-67
2022/11/21 00:24:10;;;;;;;;;;;;;;;6.24;71.36;94620.22;5048535;28;20477;-66
2022/11/21 00:26:36;;;;;;;;;;;;;;;6.54;70.29;94624.22;5030249;28;20041;-66
2022/11/21 00:29:01;;;;;;;;;;;;;;;6.36;70.35;94610.00;5031622;28;20409;-67
2022/11/21 00:31:26;;;;;;;;;;;;;;;6.10;71.08;94620.19;5044765;28;20104;-67
2022/11/21 00:33:51;;;;;;;;;;;;;;;6.72;69.58;94615.47;5044312;28;20017;-67
2022/11/21 00:36:16;;;;;;;;;;;;;;;6.64;69.39;94613.47;5024395;28;20010;-68
2022/11/21 00:38:42;;;;;;;;;;;;;;;6.77;69.50;94610.09;5029963;28;20574;-67
2022/11/21 00:41:07;;;;;;;;;;;;;;;6.78;68.77;94611.66;5047088;28;20016;-67
2022/11/21 00:43:32;;;;;;;;;;;;;;;6.82;68.71;94605.78;5053472;28;20009;-67
2022/11/21 00:46:00;;;;;;;;;;;;;;;7.07;67.87;94600.03;5033525;28;20014;-67
2022/11/21 00:48:25;;;;;;;;;;;;;;;6.71;68.12;94595.41;5053521;28;20359;-67
2022/11/21 00:50:50;;;;;;;;;;;;;;;6.61;68.24;94592.94;5051299;28;20036;-67
2022/11/21 00:53:15;;;;;;;;;;;;;;;6.53;69.05;94590.19;5053341;28;20001;-67
2022/11/21 00:55:40;;;;;;;;;;;;;;;6.82;67.94;94593.34;5051698;28;20013;-66
2022/11/21 00:58:06;;;;;;;;;;;;;;;7.01;68.37;94595.88;5035370;28;20032;-67
2022/11/21 01:00:31;;;;;;;;;;;;;;;6.42;69.17;94592.22;5047194;28;20012;-67
2022/11/21 01:02:56;;;;;;;;;;;;;;;6.36;68.72;94588.09;5052977;28;20014;-67
2022/11/21 01:05:21;;;;;;;;;;;;;;;6.83;67.20;94597.56;5033121;28;20390;-67
2022/11/21 01:07:47;;;;;;;;;;;;;;;6.72;68.33;94589.03;5035175;28;20048;-65
2022/11/21 01:10:12;;;;;;;;;;;;;;;6.72;67.85;94581.09;5032774;28;20120;-68
2022/11/21 01:12:37;;;;;;;;;;;;;;;6.71;68.93;94586.69;5050568;28;20904;-66
2022/11/21 01:15:03;;;;;;;;;;;;;;;6.37;69.63;94597.59;5032509;28;20018;-66
2022/11/21 01:17:30;;;;;;;;;;;;;;;6.60;69.77;94591.34;5034057;28;20044;-67
2022/11/21 01:19:55;;;;;;;;;;;;;;;6.66;68.73;94600.00;5046039;28;20013;-66
2022/11/21 01:22:21;;;;;;;;;;;;;;;6.73;69.41;94587.94;5040730;28;20100;-67
2022/11/21 01:24:46;;;;;;;;;;;;;;;6.64;68.25;94602.13;5052588;28;20343;-66
2022/11/21 01:27:11;;;;;;;;;;;;;;;6.58;68.81;94590.09;5052135;28;20009;-66
2022/11/21 01:29:36;;;;;;;;;;;;;;;6.84;68.94;94593.06;5051358;28;20013;-67
2022/11/21 01:32:01;;;;;;;;;;;;;;;6.43;70.04;94581.34;5064984;22;20017;-75
2022/11/21 01:34:26;;;;;;;;;;;;;;;6.70;69.50;94583.25;5035104;28;20017;-75
2022/11/21 01:36:52;;;;;;;;;;;;;;;6.67;69.81;94586.47;5034144;28;20067;-74
2022/11/21 01:39:17;;;;;;;;;;;;;;;6.69;69.25;94583.53;5052001;28;20004;-75
2022/11/21 01:41:43;;;;;;;;;;;;;;;6.47;69.37;94584.19;5023181;28;20386;-74
2022/11/21 01:44:19;;;;;;;;;;;;;;;6.34;70.52;94584.94;5034000;28;20108;-75
2022/11/21 01:46:44;;;;;;;;;;;;;;;6.08;71.26;94585.38;5030141;28;20009;-75
2022/11/21 01:49:12;;;;;;;;;;;;;;;6.33;69.89;94586.03;5033383;28;20017;-75
2022/11/21 01:51:43;;;;;;;;;;;;;;;6.39;70.89;94577.72;5050273;28;20009;-75
2022/11/21 01:54:19;;;;;;;;;;;;;;;6.37;70.80;94571.16;5033675;28;20036;-75
2022/11/21 01:56:48;;;;;;;;;;;;;;;6.38;71.29;94567.44;5031835;28;20010;-74
2022/11/21 01:59:18;;;;;;;;;;;;;;;6.81;69.04;94573.28;5033105;28;20010;-75
2022/11/21 02:01:43;;;;;;;;;;;;;;;7.00;68.15;94563.38;5033118;28;20014;-75
2022/11/21 02:04:08;;;;;;;;;;;;;;;6.55;69.41;94565.03;5052035;28;20012;-75
2022/11/21 02:06:36;;;;;;;;;;;;;;;6.85;68.51;94552.31;5050854;28;20028;-75
2022/11/21 02:09:01;;;;;;;;;;;;;;;6.45;68.84;94550.16;5052101;28;20552;-75
2022/11/21 02:11:34;;;;;;;;;;;;;;;7.01;67.75;94537.72;5050503;28;20098;-75
2022/11/21 02:13:59;;;;;;;;;;;;;;;7.07;67.72;94533.13;5033487;28;20049;-75
2022/11/21 02:16:25;;;;;;;;;;;;;;;6.94;67.97;94537.34;5050512;28;20049;-75
2022/11/21 02:18:50;;;;;;;;;;;;;;;6.91;67.57;94532.63;5051014;28;20039;-75
2022/11/21 02:21:20;;;;;;;;;;;;;;;6.88;68.39;94533.22;5015358;28;20105;-75
2022/11/21 02:23:56;;;;;;;;;;;;;;;6.82;67.78;94523.84;5031671;28;20030;-75
2022/11/21 02:26:21;;;;;;;;;;;;;;;7.22;66.69;94527.53;5031159;28;20496;-74
2022/11/21 02:28:46;;;;;;;;;;;;;;;6.66;68.03;94524.13;5036802;28;20148;-75
2022/11/21 02:31:12;;;;;;;;;;;;;;;6.96;67.72;94520.13;5046679;28;20393;-75
2022/11/21 02:33:37;;;;;;;;;;;;;;;7.21;66.47;94518.00;5051911;28;20036;-75
2022/11/21 02:36:03;;;;;;;;;;;;;;;7.17;66.43;94517.81;5032326;28;20017;-74
2022/11/21 02:38:33;;;;;;;;;;;;;;;7.45;65.74;94510.59;5045430;28;20017;-75
2022/11/21 02:40:59;;;;;;;;;;;;;;;6.64;67.55;94518.34;5019592;28;20013;-75
2022/11/21 02:43:30;;;;;;;;;;;;;;;6.80;67.29;94510.13;5051339;28;20013;-75
2022/11/21 02:45:55;;;;;;;;;;;;;;;6.95;66.78;94513.22;5049469;28;20348;-74
2022/11/21 02:48:20;;;;;;;;;;;;;;;6.57;68.20;94503.97;5046432;28;20021;-75
2022/11/21 02:50:46;;;;;;;;;;;;;;;6.65;67.33;94511.97;5041539;28;20021;-75
2022/11/21 02:53:12;;;;;;;;;;;;;;;6.20;68.24;94516.28;5033489;28;20009;-74
2022/11/21 02:55:37;;;;;;;;;;;;;;;6.43;68.97;94519.81;5029210;28;20538;-75
2022/11/21 02:58:03;;;;;;;;;;;;;;;6.82;66.58;94519.34;5014873;28;20090;-75
2022/11/21 03:00:29;;;;;;;;;;;;;;;7.08;66.14;94514.31;5037883;28;20014;-74
2022/11/21 03:02:54;;;;;;;;;;;;;;;7.60;64.38;94503.38;5032568;28;20016;-73
2022/11/21 03:05:20;;;;;;;;;;;;;;;6.91;65.80;94500.91;5031626;28;20006;-72
2022/11/21 03:07:46;;;;;;;;;;;;;;;6.88;66.24;94504.94;5032754;28;20466;-72
2022/11/21 03:10:11;;;;;;;;;;;;;;;7.07;65.62;94511.97;5049090;28;20485;-72
2022/11/21 03:12:37;;;;;;;;;;;;;;;6.83;65.84;94501.63;5032998;28;20470;-72
2022/11/21 03:15:03;;;;;;;;;;;;;;;6.59;66.08;94502.59;5048870;28;20564;-73
2022/11/21 03:17:28;;;;;;;;;;;;;;;7.01;65.47;94496.22;5050043;28;20010;-72
2022/11/21 03:19:54;;;;;;;;;;;;;;;7.54;63.97;94489.50;5032241;28;20014;-71
2022/11/21 03:22:19;;;;;;;;;;;;;;;6.79;65.14;94490.84;5031150;28;20021;-72
2022/11/21 03:24:44;;;;;;;;;;;;;;;7.09;65.34;94484.13;5029953;28;20049;-72
2022/11/21 03:27:09;;;;;;;;;;;;;;;7.57;64.01;94478.28;5045489;28;20654;-74
2022/11/21 03:29:34;;;;;;;;;;;;;;;7.39;63.64;94477.41;5017199;28;20155;-73
2022/11/21 03:32:00;;;;;;;;;;;;;;;7.68;63.40;94469.06;5044350;28;20029;-73
2022/11/21 03:34:25;;;;;;;;;;;;;;;7.01;64.53;94475.06;5050327;28;20466;-74
2022/11/21 03:36:50;;;;;;;;;;;;;;;6.97;65.07;94471.44;5030850;28;20026;-74
2022/11/21 03:39:15;;;;;;;;;;;;;;;7.34;64.81;94477.50;5032515;28;20013;-72
2022/11/21 03:41:41;;;;;;;;;;;;;;;7.10;65.30;94474.34;5031343;28;20016;-73
2022/11/21 03:44:10;;;;;;;;;;;;;;;7.17;64.96;94466.78;5032629;28;20059;-73
2022/11/21 03:46:37;;;;;;;;;;;;;;;7.11;64.51;94460.81;5045899;28;20010;-73
2022/11/21 03:49:03;;;;;;;;;;;;;;;7.43;64.27;94462.50;5012554;28;20056;-73
2022/11/21 03:51:28;;;;;;;;;;;;;;;7.51;63.52;94455.69;5040523;28;20037;-74
2022/11/21 03:53:54;;;;;;;;;;;;;;;6.93;65.04;94457.25;5031944;28;20049;-73
2022/11/21 03:56:19;;;;;;;;;;;;;;;6.96;64.06;94459.31;5030153;28;20014;-73
2022/11/21 03:58:44;;;;;;;;;;;;;;;7.58;63.01;94458.72;5028679;28;20022;-73
2022/11/21 04:01:11;;;;;;;;;;;;;;;7.69;62.82;94459.25;5034597;28;20012;-73
2022/11/21 04:03:37;;;;;;;;;;;;;;;7.37;63.85;94462.88;5012501;28;20112;-72
2022/11/21 04:06:02;;;;;;;;;;;;;;;8.05;61.56;94457.28;5043990;28;20096;-73
2022/11/21 04:08:28;;;;;;;;;;;;;;;7.61;61.67;94463.38;5031768;28;20014;-73
2022/11/21 04:10:53;;;;;;;;;;;;;;;7.94;62.47;94455.97;5041833;28;20020;-73
2022/11/21 04:13:19;;;;;;;;;;;;;;;8.16;61.37;94459.66;5049170;28;20006;-73
2022/11/21 04:15:44;;;;;;;;;;;;;;;7.45;62.51;94449.72;5047423;28;20627;-73
2022/11/21 04:18:10;;;;;;;;;;;;;;;7.89;61.39;94450.81;5047464;28;20013;-73
2022/11/21 04:20:35;;;;;;;;;;;;;;;7.95;61.92;94448.81;5048772;28;20062;-73
2022/11/21 04:23:00;;;;;;;;;;;;;;;8.30;61.18;94445.22;5049704;28;20010;-73
2022/11/21 04:25:26;;;;;;;;;;;;;;;8.32;60.60;94445.69;5030624;28;20416;-73
2022/11/21 04:27:54;;;;;;;;;;;;;;;7.64;62.67;94457.50;5049124;28;20014;-73
2022/11/21 04:30:19;;;;;;;;;;;;;;;7.94;62.49;94441.94;5030033;28;20006;-72
2022/11/21 04:32:46;;;;;;;;;;;;;;;7.77;62.24;94445.25;5048392;28;20017;-72
2022/11/21 04:35:11;;;;;;;;;;;;;;;7.15;64.68;94443.28;5029482;28;20470;-72
2022/11/21 04:37:37;;;;;;;;;;;;;;;7.25;64.46;94450.19;5049034;28;20040;-72
2022/11/21 04:40:03;;;;;;;;;;;;;;;6.69;66.08;94446.91;5030732;28;20017;-72
2022/11/21 04:42:28;;;;;;;;;;;;;;;7.22;64.87;94462.16;5049802;28;20572;-72
2022/11/21 04:44:53;;;;;;;;;;;;;;;7.01;66.52;94445.16;5029745;28;20010;-73
2022/11/21 04:47:18;;;;;;;;;;;;;;;6.91;66.70;94440.91;5048710;28;20036;-72
2022/11/21 04:49:43;;;;;;;;;;;;;;;6.58;68.83;94428.91;5049465;28;20370;-72
2022/11/21 04:52:09;;;;;;;;;;;;;;;6.88;67.75;94433.56;5047440;28;20139;-72
2022/11/21 04:54:34;;;;;;;;;;;;;;;6.76;68.11;94433.28;5031228;28;20017;-71
2022/11/21 04:57:00;;;;;;;;;;;;;;;7.08;68.19;94432.34;5047518;28;20025;-72
2022/11/21 04:59:25;;;;;;;;;;;;;;;7.56;65.91;94427.22;5030952;28;20057;-72
2022/11/21 05:01:50;;;;;;;;;;;;;;;7.72;66.09;94405.69;5048334;28;20017;-73
2022/11/21 05:04:15;;;;;;;;;;;;;;;7.56;66.03;94410.56;5049467;28;20013;-73
2022/11/21 05:06:40;;;;;;;;;;;;;;;8.13;65.19;94399.34;5015113;28;20017;-74
2022/11/21 05:09:06;;;;;;;;;;;;;;;8.20;64.58;94397.03;5011921;28;20556;-72
2022/11/21 05:14:14;;;;;;;;;;;;;;;8.04;65.10;94391.38;5036220;28;20099;-73
2022/11/21 05:16:40;;;;;;;;;;;;;;;7.74;65.08;94391.06;5019480;28;20021;-72
2022/11/21 05:19:06;;;;;;;;;;;;;;;7.88;64.88;94393.59;5049181;28;20054;-73
2022/11/21 05:21:31;;;;;;;;;;;;;;;7.68;64.78;94391.50;5049742;28;20532;-74
2022/11/21 05:23:56;;;;;;;;;;;;;;;7.55;65.90;94393.91;5043458;28;20015;-74
2022/11/21 05:26:22;;;;;;;;;;;;;;;7.24;66.34;94395.72;5033240;28;20036;-74
2022/11/21 05:28:47;;;;;;;;;;;;;;;7.65;65.41;94390.22;5035067;28;20096;-74
2022/11/21 05:31:12;;;;;;;;;;;;;;;7.53;66.13;94390.81;5046369;28;20014;-73
2022/11/21 05:33:37;;;;;;;;;;;;;;;7.08;66.17;94392.66;5032788;28;20023;-74
2022/11/21 05:36:03;;;;;;;;;;;;;;;6.35;68.38;94391.84;5049731;28;20017;-73
2022/11/21 05:38:28;;;;;;;;;;;;;;;5.99;70.35;94395.19;5034847;28;20017;-74
2022/11/21 05:40:53;;;;;;;;;;;;;;;6.62;68.57;94384.97;5034047;28;20508;-73
2022/11/21 05:46:02;;;;;;;;;;;;;;;6.33;69.80;94387.94;5050546;28;20020;-73
2022/11/21 05:48:27;;;;;;;;;;;;;;;6.68;68.00;94396.97;5052665;28;20006;-74
2022/11/21 05:50:52;;;;;;;;;;;;;;;6.79;67.82;94385.09;5033609;28;20013;-74
2022/11/21 05:53:18;;;;;;;;;;;;;;;7.01;67.17;94394.91;5038879;28;20040;-73
2022/11/21 05:55:43;;;;;;;;;;;;;;;6.72;68.88;94395.31;5051602;28;20013;-74
2022/11/21 05:58:09;;;;;;;;;;;;;;;6.69;69.01;94404.59;5034839;28;20100;-73
2022/11/21 06:00:35;;;;;;;;;;;;;;;6.37;70.43;94397.63;5033521;28;20017;-73
2022/11/21 06:05:44;;;;;;;;;;;;;;;6.58;70.40;94405.91;5051937;28;20650;-74
2022/11/21 06:08:09;;;;;;;;;;;;;;;6.58;69.90;94416.47;5051646;28;20053;-73
2022/11/21 06:10:34;;;;;;;;;;;;;;;6.46;69.84;94364.16;5052114;28;20006;-74
2022/11/21 06:13:00;;;;;;;;;;;;;;;6.32;71.30;94408.28;5038472;28;20017;-73
2022/11/21 06:15:25;;;;;;;;;;;;;;;6.41;72.10;94413.66;5036970;28;20059;-73
2022/11/21 06:17:50;;;;;;;;;;;;;;;6.21;72.71;94412.19;5036835;28;20021;-74
2022/11/21 06:20:16;;;;;;;;;;;;;;;6.96;70.57;94417.00;5036095;28;20014;-72
2022/11/21 06:22:41;;;;;;;;;;;;;;;6.35;71.48;94412.97;5052690;28;20108;-73
2022/11/21 06:25:06;;;;;;;;;;;;;;;6.76;70.85;94417.44;5052862;28;20006;-74
2022/11/21 06:27:31;;;;;;;;;;;;;;;6.60;70.44;94422.22;5050119;28;20100;-73
2022/11/21 06:29:57;;;;;;;;;;;;;;;6.16;72.47;94413.06;5051702;28;20039;-74
2022/11/21 06:32:22;;;;;;;;;;;;;;;6.31;72.70;94413.88;5032393;28;20021;-74
2022/11/21 06:34:47;;;;;;;;;;;;;;;6.09;72.02;94425.09;5051199;28;20466;-73
2022/11/21 06:37:12;;;;;;;;;;;;;;;6.67;70.60;94416.56;5049497;28;20013;-72
2022/11/21 06:39:37;;;;;;;;;;;;;;;6.62;71.20;94414.81;5051363;28;20009;-74
2022/11/21 06:42:03;;;;;;;;;;;;;;;6.61;70.47;94423.81;5049720;28;20493;-74
2022/11/21 06:44:28;;;;;;;;;;;;;;;6.59;70.85;94431.25;5050155;28;20025;-74
2022/11/21 06:46:53;;;;;;;;;;;;;;;6.93;70.02;94430.03;5050225;28;20013;-74
2022/11/21 06:49:19;;;;;;;;;;;;;;;7.07;69.19;94437.94;5025514;28;20017;-75
2022/11/21 06:51:44;;;;;;;;;;;;;;;7.17;69.02;94445.63;5013811;28;20010;-74
2022/11/21 06:54:09;;;;;;;;;;;;;;;6.57;70.97;94445.84;5040940;28;20014;-80
2022/11/21 06:56:34;;;;;;;;;;;;;;;6.66;70.23;94454.66;5033254;28;20010;-77
2022/11/21 06:58:59;;;;;;;;;;;;;;;6.47;71.15;94441.53;5032304;28;20010;-77
2022/11/21 07:01:25;;;;;;;;;;;;;;;6.43;70.41;94451.13;5049740;28;20462;-71
2022/11/21 07:03:50;;;;;;;;;;;;;;;6.57;70.05;94454.56;5032141;28;20013;-73
2022/11/21 07:06:15;;;;;;;;;;;;;;;6.54;70.17;94452.47;5032747;28;20009;-72
2022/11/21 07:08:41;;;;;;;;;;;;;;;6.32;71.44;94449.75;5048317;28;20018;-72
2022/11/21 07:11:07;;;;;;;;;;;;;;;6.54;70.28;94459.63;5050690;28;20006;-73
2022/11/21 07:13:33;;;;;;;;;;;;;;;6.79;69.09;94464.41;5048061;28;20104;-73
2022/11/21 07:16:06;;;;;;;;;;;;;;;6.84;68.14;94463.53;5049165;28;20104;-70
2022/11/21 07:18:31;;;;;;;;;;;;;;;7.00;67.80;94468.19;5049776;28;20014;-70
2022/11/21 07:21:00;;;;;;;;;;;;;;;7.22;66.95;94471.97;5031505;28;20394;-70
2022/11/21 07:23:25;;;;;;;;;;;;;;;7.75;65.37;94471.28;5031266;28;20071;-70
2022/11/21 07:25:51;;;;;;;;;;;;;;;7.64;65.56;94476.03;5026139;28;20474;-71
2022/11/21 07:28:16;;;;;;;;;;;;;;;7.33;65.88;94480.47;5044490;28;20017;-71
2022/11/21 07:30:41;;;;;;;;;;;;;;;6.05;69.21;94483.00;5042457;28;20014;-74
2022/11/21 07:33:08;;;;;;;;;;;;;;;6.23;68.80;94482.13;5012547;28;20112;-73
2022/11/21 07:35:33;;;;;;;;;;;;;;;6.93;67.36;94482.91;5012131;28;20017;-74
2022/11/21 07:37:59;;;;;;;;;;;;;;;6.59;67.57;94483.31;5038821;28;20371;-74
2022/11/21 07:40:24;;;;;;;;;;;;;;;6.62;67.73;94482.72;5031187;28;20016;-69
2022/11/21 07:42:49;;;;;;;;;;;;;;;6.49;67.71;94493.00;5049220;28;20013;-70
2022/11/21 07:45:15;;;;;;;;;;;;;;;6.61;68.75;94489.88;5029217;28;20017;-70
2022/11/21 07:47:40;;;;;;;;;;;;;;;6.80;68.11;94488.97;5047606;28;20010;-71
2022/11/21 07:50:06;;;;;;;;;;;;;;;6.60;67.54;94498.88;5045754;28;20464;-69
2022/11/21 07:52:31;;;;;;;;;;;;;;;6.93;66.59;94496.13;5035709;28;20076;-71
2022/11/21 07:54:56;;;;;;;;;;;;;;;6.87;66.07;94484.88;5030718;28;20068;-74
2022/11/21 07:57:22;;;;;;;;;;;;;;;7.24;65.50;94496.25;5031793;28;20112;-71
2022/11/21 07:59:47;;;;;;;;;;;;;;;6.56;66.99;94500.56;5059538;28;20501;-70
2022/11/21 08:02:19;;;;;;;;;;;;;;;7.07;66.17;94488.16;5055289;28;20697;-71
2022/11/21 08:04:45;;;;;;;;;;;;;;;7.18;66.37;94492.16;5030982;28;20040;-74
2022/11/21 08:07:10;;;;;;;;;;;;;;;7.12;66.28;94496.00;5048610;28;20413;-71
2022/11/21 08:09:35;;;;;;;;;;;;;;;7.37;65.64;94494.63;5049298;28;20064;-72
2022/11/21 08:12:01;;;;;;;;;;;;;;;6.92;66.31;94505.13;5042655;28;20014;-76
2022/11/21 08:14:26;;;;;;;;;;;;;;;6.51;67.95;94512.00;5030424;28;20144;-71
2022/11/21 08:16:51;;;;;;;;;;;;;;;7.13;66.03;94490.41;5029595;28;20009;-73
2022/11/21 08:19:17;;;;;;;;;;;;;;;6.17;68.63;94504.41;5012106;28;20523;-70
2022/11/21 08:21:42;;;;;;;;;;;;;;;6.88;67.91;94506.78;5012064;28;20429;-71
2022/11/21 08:24:12;;;;;;;;;;;;;;;7.17;66.34;94501.19;5011841;28;20016;-68
2022/11/21 08:26:37;;;;;;;;;;;;;;;6.99;66.29;94503.63;5021578;28;20097;-70
2022/11/21 08:29:02;;;;;;;;;;;;;;;7.52;65.39;94507.53;5050359;28;20489;-70
2022/11/21 08:31:27;;;;;;;;;;;;;;;7.21;65.20;94513.47;5032191;28;20009;-68
2022/11/21 08:33:56;;;;;;;;;;;;;;;6.58;67.26;94511.59;5048914;28;20021;-68
2022/11/21 08:36:21;;;;;;;;;;;;;;;7.16;66.45;94494.28;5049780;28;20100;-68
2022/11/21 08:38:46;;;;;;;;;;;;;;;7.19;65.37;94502.44;5032769;28;20096;-68
2022/11/21 08:43:55;;;;;;;;;;;;;;;7.68;63.72;94500.81;5030915;28;20020;-71
2022/11/21 08:46:20;;;;;;;;;;;;;;;8.40;61.71;94496.44;5011876;28;20485;-69
2022/11/21 08:48:46;;;;;;;;;;;;;;;7.52;64.18;94510.16;5029813;28;20010;-69
2022/11/21 08:51:11;;;;;;;;;;;;;;;7.74;62.82;94515.50;5043898;28;20014;-69
2022/11/21 08:53:36;;;;;;;;;;;;;;;8.12;62.27;94512.44;5029883;28;20006;-68
2022/11/21 08:56:01;;;;;;;;;;;;;;;9.03;60.09;94503.19;5031988;28;20053;-69
2022/11/21 08:58:27;;;;;;;;;;;;;;;8.39;61.07;94505.44;5048233;28;20049;-70
2022/11/21 09:00:52;;;;;;;;;;;;;;;8.21;61.28;94509.84;5052169;28;20006;-68
2022/11/21 09:03:17;;;;;;;;;;;;;;;8.78;60.07;94502.78;5035085;28;20451;-69
2022/11/21 09:05:42;;;;;;;;;;;;;;;8.91;59.59;94495.81;5051990;28;20063;-69
2022/11/21 09:08:07;;;;;;;;;;;;;;;8.87;59.30;94502.06;5052237;28;20092;-69
2022/11/21 09:10:32;;;;;;;;;;;;;;;9.41;58.02;94490.09;5052907;28;20100;-68
2022/11/21 09:12:58;;;;;;;;;;;;;;;8.51;59.81;94495.06;5051524;28;20510;-68
2022/11/21 09:18:09;;;;;;;;;;;;;;;9.49;57.96;94492.00;5053003;28;20134;-68
2022/11/21 09:20:39;;;;;;;;;;;;;;;9.41;57.87;94489.31;5035577;28;20115;-68
2022/11/21 09:23:05;;;;;;;;;;;;;;;9.18;58.47;94496.66;5053292;28;20006;-69
2022/11/21 09:25:30;;;;;;;;;;;;;;;8.79;60.31;94499.06;5053054;28;20012;-69
2022/11/21 09:28:00;;;;;;;;;;;;;;;8.22;61.13;94493.66;5033268;28;20014;-70
2022/11/21 09:30:25;;;;;;;;;;;;;;;8.63;61.43;94491.84;5053300;28;20013;-69
2022/11/21 09:32:50;;;;;;;;;;;;;;;9.13;59.64;94484.31;5035060;28;20017;-71
2022/11/21 09:35:15;;;;;;;;;;;;;;;8.06;62.10;94492.47;5034504;28;20018;-70
2022/11/21 09:37:40;;;;;;;;;;;;;;;8.43;60.98;94487.84;5051474;28;20014;-75
2022/11/21 09:40:06;;;;;;;;;;;;;;;8.43;61.16;94487.84;5052045;28;20108;-71
2022/11/21 09:42:46;;;;;;;;;;;;;;;8.58;61.12;94487.44;5033376;28;20053;-71
2022/11/21 09:45:11;;;;;;;;;;;;;;;7.97;62.10;94491.63;5050218;28;20624;-69
2022/11/21 09:47:48;;;;;;;;;;;;;;;7.98;62.09;94490.56;5030602;28;20089;-70
2022/11/21 09:50:13;;;;;;;;;;;;;;;8.55;60.80;94485.44;5014915;28;20009;-70
2022/11/21 09:52:52;;;;;;;;;;;;;;;9.07;59.10;94470.41;5032828;28;20435;-69
2022/11/21 09:55:33;;;;;;;;;;;;;;;8.92;58.51;94473.50;5034527;28;20024;-71
2022/11/21 09:58:01;;;;;;;;;;;;;;;8.55;59.83;94474.81;5050231;28;20067;-71
2022/11/21 10:00:26;;;;;;;;;;;;;;;8.71;59.72;94478.59;5033598;28;20498;-71
2022/11/21 10:02:51;;;;;;;;;;;;;;;8.76;59.16;94473.16;5051940;28;20055;-69
2022/11/21 10:05:21;;;;;;;;;;;;;;;9.48;57.63;94466.53;5033683;28;20010;-72
2022/11/21 10:07:48;;;;;;;;;;;;;;;9.45;56.14;94466.38;5033424;28;20013;-72
2022/11/21 10:10:19;;;;;;;;;;;;;;;8.36;59.71;94471.59;5052090;28;20016;-71
2022/11/21 10:13:03;;;;;;;;;;;;;;;9.01;58.61;94458.41;5051140;28;20092;-72
2022/11/21 10:15:39;;;;;;;;;;;;;;;8.35;59.96;94470.81;5051581;28;20013;-72
2022/11/21 10:18:13;;;;;;;;;;;;;;;8.18;59.43;94466.19;5026548;28;20014;-70
2022/11/21 10:20:48;;;;;;;;;;;;;;;8.59;58.35;94467.78;5032252;28;20413;-71
2022/11/21 10:23:22;;;;;;;;;;;;;;;8.71;58.32;94452.09;5014346;28;20013;-71
2022/11/21 10:25:55;;;;;;;;;;;;;;;8.78;57.83;94455.06;5031616;28;20097;-70
2022/11/21 10:28:30;;;;;;;;;;;;;;;9.03;57.86;94444.81;5038980;28;20343;-70
2022/11/21 10:30:57;;;;;;;;;;;;;;;8.62;57.93;94434.59;5031895;28;20542;-70
2022/11/21 10:33:30;;;;;;;;;;;;;;;8.89;57.39;94425.59;5031532;28;20065;-71
2022/11/21 10:35:57;;;;;;;;;;;;;;;9.19;57.34;94418.59;5030191;28;20025;-71
2022/11/21 10:38:24;;;;;;;;;;;;;;;8.71;57.75;94428.22;5021379;28;20020;-71
2022/11/21 10:40:49;;;;;;;;;;;;;;;9.99;54.89;94414.44;5033636;28;20010;-71
2022/11/21 10:46:19;;;;;;;;;;;;;;;9.47;54.06;94419.84;5051129;28;20012;-70
2022/11/21 10:48:52;;;;;;;;;;;;;;;9.82;52.34;94409.16;5050285;28;20398;-70
2022/11/21 10:51:41;;;;;;;;;;;;;;;9.30;54.01;94414.53;5051254;28;20010;-66
2022/11/21 10:56:53;;;;;;;;;;;;;;;10.83;50.30;94404.84;5050143;28;20032;-69
2022/11/21 10:59:28;;;;;;;;;;;;;;;10.06;51.15;94409.41;5050638;28;20013;-74
2022/11/21 11:02:14;;;;;;;;;;;;;;;10.55;51.07;94409.09;5033447;28;20825;-72
2022/11/21 11:04:39;;;;;;;;;;;;;;;10.53;49.61;94397.97;5050233;28;20010;-72
2022/11/21 11:07:23;;;;;;;;;;;;;;;10.00;50.64;94393.97;5049690;28;20020;-73
2022/11/21 11:09:48;;;;;;;;;;;;;;;9.75;51.30;94387.63;5051404;28;20039;-75
2022/11/21 11:13:32;;;;;;;;;;;;;;;10.06;51.10;94388.16;5050463;28;20421;-73
2022/11/21 11:15:15;;;;;;;;;;;;;;;9.28;52.51;94380.38;5050596;28;20018;-74
2022/11/21 11:17:41;;;;;;;;;;;;;;;9.67;51.21;94380.44;5036266;28;20505;-72
2022/11/21 11:20:26;;;;;;;;;;;;;;;9.46;52.15;94381.09;5031172;28;20049;-70
2022/11/21 11:22:51;;;;;;;;;;;;;;;8.88;52.10;94371.78;5030408;28;20014;-73
2022/11/21 11:25:16;;;;;;;;;;;;;;;9.17;52.90;94375.69;5039041;28;20016;-72
2022/11/21 11:27:41;;;;;;;;;;;;;;;9.17;52.54;94370.38;5050347;28;20044;-77
2022/11/21 11:30:07;;;;;;;;;;;;;;;9.40;52.41;94360.38;5031181;28;20014;-72
2022/11/21 11:32:37;;;;;;;;;;;;;;;9.27;52.65;94360.22;5031694;28;20072;-78
2022/11/21 11:35:12;;;;;;;;;;;;;;;9.58;51.52;94356.59;5032091;28;20146;-77
2022/11/21 11:37:41;;;;;;;;;;;;;;;10.25;50.54;94347.94;5032684;28;20015;-75
2022/11/21 11:40:19;;;;;;;;;;;;;;;9.68;50.51;94345.63;5032851;28;20014;-75
2022/11/21 11:48:27;;;;;;;;;;;;;;;10.62;48.36;94334.88;5050772;28;20101;-75
2022/11/21 11:50:59;;;;;;;;;;;;;;;10.07;49.99;94331.25;5032410;28;20014;-74
2022/11/21 11:53:40;;;;;;;;;;;;;;;10.01;49.93;94345.03;5050640;28;20062;-75
2022/11/21 11:56:11;;;;;;;;;;;;;;;11.10;47.56;94334.34;5034480;28;20068;-73
2022/11/21 11:58:39;;;;;;;;;;;;;;;11.17;48.11;94333.84;5043405;28;20108;-74
2022/11/21 12:01:24;;;;;;;;;;;;;;;10.87;47.59;94330.50;5032620;28;20316;-74
2022/11/21 12:03:55;;;;;;;;;;;;;;;10.84;48.47;94321.25;5032054;28;20056;-76
2022/11/21 12:06:24;;;;;;;;;;;;;;;11.24;47.13;94326.09;5031518;28;20474;-74
2022/11/21 12:08:54;;;;;;;;;;;;;;;12.51;46.32;94319.19;5050053;28;20045;-72
2022/11/21 12:17:29;;;;;;;;;;;;;;;14.12;45.04;94292.22;5030736;28;20016;-75
2022/11/21 12:19:55;;;;;;;;;;;;;;;14.78;44.48;94278.81;5012265;28;20490;-74
2022/11/21 12:22:21;;;;;;;;;;;;;;;15.13;43.69;94277.97;5012377;28;20013;-74
2022/11/21 12:24:46;;;;;;;;;;;;;;;15.13;43.19;94269.16;5045485;28;20021;-73
2022/11/21 12:27:17;;;;;;;;;;;;;;;15.06;42.88;94259.88;5049833;28;20012;-75
2022/11/21 12:29:57;;;;;;;;;;;;;;;15.21;42.87;94252.13;5049292;28;20509;-74
2022/11/21 12:32:22;;;;;;;;;;;;;;;15.48;42.50;94243.03;5032490;28;20385;-75
2022/11/21 12:34:47;;;;;;;;;;;;;;;15.45;41.13;94238.38;5031360;28;20020;-75
2022/11/21 12:37:22;;;;;;;;;;;;;;;13.16;45.53;94237.16;5054403;28;20660;-75
2022/11/21 12:39:53;;;;;;;;;;;;;;;14.45;43.41;94231.06;5036475;28;20009;-75
2022/11/21 12:45:41;;;;;;;;;;;;;;;13.02;44.71;94230.31;5024689;28;20014;-74
2022/11/21 12:54:36;;;;;;;;;;;;;;;13.13;44.15;94222.56;5043754;28;20527;-73
2022/11/21 12:57:10;;;;;;;;;;;;;;;10.88;47.99;94222.97;5053539;28;20009;-74
2022/11/21 12:59:54;;;;;;;;;;;;;;;10.62;48.49;94220.53;5035205;28;20067;-73
2022/11/21 13:02:22;;;;;;;;;;;;;;;11.09;48.29;94221.03;5035335;28;20470;-68
2022/11/21 13:04:48;;;;;;;;;;;;;;;11.80;48.22;94203.13;5034620;28;20386;-67
2022/11/21 13:07:14;;;;;;;;;;;;;;;12.21;45.23;94200.22;5052839;28;20040;-71
2022/11/21 13:09:41;;;;;;;;;;;;;;;12.62;44.97;94190.31;5053178;28;20584;-75
2022/11/21 13:12:12;;;;;;;;;;;;;;;12.28;44.68;94191.66;5053469;28;20059;-74
2022/11/21 13:14:46;;;;;;;;;;;;;;;11.91;45.11;94191.72;5051489;28;20446;-74
2022/11/21 13:17:25;;;;;;;;;;;;;;;11.65;45.71;94186.72;5035117;28;20009;-73
2022/11/21 13:20:03;;;;;;;;;;;;;;;10.97;46.81;94185.63;5053176;28;20047;-73
2022/11/21 13:22:34;;;;;;;;;;;;;;;10.96;46.58;94186.75;5030202;28;20009;-73
2022/11/21 13:25:00;;;;;;;;;;;;;;;10.64;47.02;94184.53;5033330;28;20386;-72
2022/11/21 13:27:27;;;;;;;;;;;;;;;10.70;47.26;94187.78;5053157;28;20020;-70
2022/11/21 13:30:21;;;;;;;;;;;;;;;11.27;45.94;94186.25;5033037;28;20055;-70
2022/11/21 13:32:48;;;;;;;;;;;;;;;11.52;45.65;94181.72;5026157;28;20017;-71
2022/11/21 13:35:13;;;;;;;;;;;;;;;11.16;46.03;94183.25;5052557;28;20327;-72
2022/11/21 13:37:48;;;;;;;;;;;;;;;11.66;45.75;94177.59;5035097;28;20016;-73